x

8461490 - New London, Ct (nlnc3) Weather Station

3:54 - Fri 22nd Aug 2014 All times are EDT. -4 hours from GMT.

  • Wind
    3mph, 6mph gusts
  • Sea Temp 71°f
  • Aire Temp 66°f
  • Sea Pressure 1016.7mb
  • 8461490 - New London, Ct
  • 8461490 - New London, Ct

More Historic Weather Station data

Upgrade to MSW Pro to gain access to the past 30 days of data for over 8000 Wavebouys and Weather Stations around the globe.

Join Pro

Comparision Forecast

View Surf forecast
   
vie 08/22 3:54 3 6 mph 1016.7mb 71f 66f
3:48 3 5 mph 1016.7mb 71f 67f
3:42 3 5 mph 1016.8mb 71f 67f
3:36 2 3 mph 1016.9mb 71f 67f
3:30  -  5 mph 1016.8mb 71f 67f
3:24 5 7 mph 1016.7mb 71f 67f
3:18 6 7 mph 1016.6mb 71f 67f
3:12 3 6 mph 1016.7mb 71f 67f
3:06 3 7 mph 1016.7mb 71f 67f
3:00 6 7 mph 1016.6mb 71f 67f
2:54 5 7 mph 1016.5mb 71f 67f
2:48 3 6 mph 1016.4mb 71f 67f
2:42 5 6 mph 1016.5mb 71f 67f
2:36 5 6 mph 1016.5mb 71f 67f
2:30 3 5 mph 1016.6mb 71f 67f
2:24 3 5 mph 1016.6mb 71f 67f
2:18 2 3 mph 1016.6mb 71f 68f
2:12  -  mph 1016.7mb 71f 68f
2:06  -  2 mph 1016.7mb 71f 68f
2:00  -  1 mph 1016.7mb 71f 68f
1:54  -  3 mph 1016.7mb 71f 68f
1:48 2 5 mph 1016.5mb 71f 68f
1:42 3 6 mph 1016.5mb 71f 68f
1:36 5 6 mph 1016.4mb 71f 68f
1:30 5 7 mph 1016.5mb 71f 68f
1:24 3 5 mph 1016.6mb 71f 68f
1:18 3 5 mph 1016.7mb 71f 68f
1:12 2 3 mph 1016.8mb 71f 68f
1:06 1 2 mph 1016.8mb 70f 68f
1:00 2 3 mph 1016.8mb 70f 68f
12:54 2 3 mph 1016.8mb 70f 68f
12:48 2 3 mph 1016.8mb 70f 68f
12:42 2 3 mph 1016.9mb 70f 69f
12:36 2 3 mph 1017mb 70f 69f
12:30 3 5 mph 1017mb 70f 69f
12:24 2 3 mph 1017mb 70f 69f
12:18 2 3 mph 1017.1mb 70f 68f
12:12 2 5 mph 1017.1mb 71f 68f
12:06 3 5 mph 1017mb 71f 69f
12:00 2 3 mph 1017.1mb 71f 69f
jue 08/21 11:54 3 6 mph 1017.1mb 71f 69f
11:48 3 5 mph 1017.2mb 71f 69f
11:42 1 3 mph 1017.2mb 71f 69f
11:36  -  1 mph 1017.2mb 71f 69f
11:30 1 2 mph 1017.2mb 71f 68f
11:24 1 3 mph 1017.1mb 71f 69f
11:18 2 5 mph 1017.1mb 71f 69f
11:12 2 5 mph 1017.1mb 71f 69f
11:06 3 5 mph 1017.2mb 71f 69f
11:00 5 6 mph 1017.1mb 71f 69f
10:54 5
mph
1017.2mb 71f 69f
10:48 3
mph
1017.2mb 71f 69f
10:42 3 5 mph 1017mb 70f 69f
10:36 3 5 mph 1017mb 71f 68f
10:30 2 5 mph 1017mb 71f 68f
10:24 3 6 mph 1017.2mb 71f 69f
10:18 5 6 mph 1017.3mb 71f 69f
10:12 5 6 mph 1017.3mb 70f 69f
10:06 5
mph
1017.3mb 70f 69f
10:00 3 5 mph 1017.3mb 70f 69f
9:54 5 6 mph 1017.2mb 70f 69f
9:48 3 6 mph 1017.2mb 70f 69f
9:42 3
mph
1017.2mb 70f 69f
9:36 2 6 mph 1017.2mb 71f 69f
9:30 5 7 mph 1017mb 71f 69f
9:24 5 6 mph 1017.1mb 71f 69f
9:18 5 6 mph 1017.2mb 71f 69f
9:12 3 5 mph 1017.2mb 71f 69f
9:06 3 6 mph 1017.3mb 71f 69f
9:00 5 6 mph 1017.4mb 70f 69f
8:54 5 6 mph 1017.4mb 70f 69f
8:48 3 6 mph 1017.3mb 70f 69f
8:42 6 7 mph 1017.2mb 69f 69f
8:36 5 7 mph 1017.2mb 70f 69f
8:30 5 7 mph 1017.3mb 70f 69f
8:24 5 6 mph 1017.2mb 70f 69f
8:18 6 8 mph 1017.1mb 70f 69f
8:12 7 8 mph 1017mb 70f 69f
8:06 6 7 mph 1017.1mb 69f 69f
8:00 5 6 mph 1016.9mb 69f 69f
7:54 6 7 mph 1016.9mb 69f 69f
7:48 7 8 mph 1016.8mb 69f 69f
7:42 7 9 mph 1016.7mb 69f 69f
7:36 8 10 mph 1016.7mb 69f 69f
7:30 7 10 mph 1016.9mb 69f 69f
7:24 7 9 mph 1017mb 69f 70f
7:18 7 8 mph 1017.1mb 69f 70f
7:12 7 8 mph 1017.1mb 69f 70f
7:06 6 7 mph 1016.9mb 69f 70f
7:00 6 7 mph 1016.9mb 69f 70f
6:54 6 7 mph 1016.8mb 69f 71f
6:48 6 7 mph 1016.8mb 69f 70f
6:42 6 7 mph 1016.9mb 69f 71f
6:36 6 7 mph 1016.9mb 69f 71f
6:30 6 8 mph 1016.9mb 69f 71f
6:24 5 7 mph 1016.9mb 69f 71f
6:18 6 8 mph 1016.9mb 69f 71f
6:12 6 7 mph 1016.9mb 69f 70f
6:06 5 8 mph 1016.9mb 69f 71f
6:00 6 8 mph 1016.9mb 69f 71f
5:54 6 8 mph 1016.9mb 69f 70f
5:48 6 10 mph 1016.9mb 69f 71f
5:42 6 8 mph 1016.9mb 69f 70f
5:36 6 8 mph 1017mb 69f 70f
5:30 8 9 mph 1017mb 69f 70f
5:24 7 9 mph 1017mb 70f 70f
5:18 7 9 mph 1017mb 70f 70f
5:12 7 9 mph 1017mb 70f 71f
5:06 7 9 mph 1016.9mb 69f 71f
5:00 7 10 mph 1017mb 69f 71f
4:54 7 10 mph 1017mb 69f 72f
4:48 8 11 mph 1016.8mb 69f 72f
4:42 9 11 mph 1016.8mb 69f 72f
4:36 7 10 mph 1016.8mb 69f 71f
4:30 8 11 mph 1016.8mb 69f 71f
4:24 8 11 mph 1016.7mb 69f 71f
4:18 7 10 mph 1016.7mb 70f 72f
4:12 8 10 mph 1016.7mb 70f 71f
4:06 8 10 mph 1016.7mb 70f 72f
4:00 7 9 mph 1016.7mb 70f 72f
3:54 7 10 mph 1016.7mb 70f 72f
3:48 8 10 mph 1016.8mb 70f 72f
3:42 7 10 mph 1016.8mb 70f 72f
3:36 8 10 mph 1016.8mb 70f 73f
3:30 7 9 mph 1016.9mb 70f 72f
3:24 8 10 mph 1017mb 70f 72f
3:18 7 9 mph 1017mb 70f 72f
3:12 7 10 mph 1016.9mb 70f 72f
3:06 8 9 mph 1017mb 70f 72f
3:00 7 11 mph 1017mb 70f 72f
2:54 8 13 mph 1017.1mb 70f 72f
2:48 8 10 mph 1017.2mb 70f 72f
2:42 7 14 mph 1017.2mb 70f 72f
2:36 9 13 mph 1017.3mb 70f 72f
2:30 8 13 mph 1017.3mb 70f 72f
2:24 10 14 mph 1017.2mb 70f 72f
2:18 9 13 mph 1017.3mb 70f 71f
2:12 8 11 mph 1017.3mb 70f 72f
2:06 8 13 mph 1017.4mb 70f 72f
2:00 7 11 mph 1017.4mb 70f 73f
1:54 9 11 mph 1017.4mb 70f 73f
1:48 9 13 mph 1017.4mb 70f 73f
1:42 9 13 mph 1017.5mb 70f 73f
1:36 10 13 mph 1017.5mb 70f 73f
1:30 10 14 mph 1017.5mb 70f 72f
1:24 8 13 mph 1017.5mb 70f 73f
1:18 10 14 mph 1017.5mb 70f 72f
1:12 9 13 mph 1017.6mb 70f 72f
1:06 8 11 mph 1017.5mb 70f 73f
1:00 8 13 mph 1017.5mb 70f 72f
12:54 9 13 mph 1017.4mb 69f 72f
12:48 8 10 mph 1017.4mb 70f 72f
12:42 6 9 mph 1017.5mb 70f 73f
12:36 8 11 mph 1017.6mb 70f 73f
12:30 6 11 mph 1017.5mb 70f 73f
12:24 7 9 mph 1017.5mb 70f 73f
12:18 7 9 mph 1017.5mb 70f 72f
12:12 7 9 mph 1017.5mb 69f 72f
11:54 8 11 mph 1017.5mb 69f 72f
11:48 9 11 mph 1017.4mb 69f 72f
11:42 10 13 mph 1017.4mb 69f 72f
11:36 11 13 mph 1017.2mb 69f 72f
11:30 9 10 mph 1017.3mb 69f 71f
11:24 6 8 mph 1017.5mb 69f 72f
11:18 6 8 mph 1017.5mb 70f 72f
11:12 5 7 mph 1017.5mb 70f 72f
11:06 5 7 mph 1017.6mb 70f 73f
11:00 5 6 mph 1017.6mb 69f 71f
10:54 6 7 mph 1017.6mb 69f 71f
10:48 6 7 mph 1017.7mb 69f 71f
10:42 3 5 mph 1017.7mb 69f 72f
10:36  -  1 mph 1017.8mb 69f 73f
10:30  -  3 mph 1017.8mb 69f 73f
10:24 2 3 mph 1017.8mb 69f 71f
10:18  -  2 mph 1017.9mb 69f 72f
10:12 2 3 mph 1018mb 69f 72f
10:06  -  3 mph 1017.9mb 69f 71f
10:00  -  3 mph 1017.9mb 69f 72f
9:54 2 6 mph 1017.7mb 69f 71f
9:48 1 5 mph 1017.7mb 69f 71f
9:42 3 5 mph 1017.7mb 69f 70f
9:36 2 5 mph 1017.6mb 69f 69f
9:30 3 6 mph 1017.5mb 69f 69f
9:24 2 5 mph 1017.6mb 69f 70f
9:18 1 6 mph 1017.6mb 69f 70f
9:12 3 6 mph 1017.6mb 69f 69f
9:06 3 6 mph 1017.7mb 69f 69f
9:00 3 6 mph 1017.7mb 69f 69f
8:54 3 5 mph 1017.8mb 69f 68f
8:48 5 7 mph 1018mb 69f 68f
8:42 2 7 mph 1018.1mb 69f 67f
8:36 3 7 mph 1018.1mb 69f 67f
8:30 3 6 mph 1018.1mb 69f 66f
8:24 5 9 mph 1018.1mb 69f 66f
8:18 1 3 mph 1018mb 69f 67f
8:12  -  1 mph 1018mb 69f 66f
8:06  -  3 mph 1017.9mb 69f 66f
8:00 3 7 mph 1017.9mb 69f 65f
7:54 5 7 mph 1017.9mb 69f 64f
7:48 2 5 mph 1017.9mb 69f 64f
7:42 2 7 mph 1017.9mb 69f 64f
7:36 5 8 mph 1017.7mb 69f 64f
7:30 5 6 mph 1017.7mb 69f 64f
7:24 5 6 mph 1017.6mb 69f 64f
7:18 3 6 mph 1017.5mb 69f 63f
7:12 2 7 mph 1017.4mb 69f 63f
7:06 5 7 mph 1017.2mb 69f 63f
7:00 5 6 mph 1017.1mb 69f 63f
6:54 2 5 mph 1017mb 69f 63f
6:48 3 6 mph 1017mb 69f 63f
6:42 3 6 mph 1017mb 69f 63f
6:36 5 6 mph 1017mb 69f 63f
6:30 5 6 mph 1017mb 69f 63f
6:24 3 7 mph 1017mb 69f 63f
6:18 6 7 mph 1017mb 69f 63f
6:12 6 7 mph 1017mb 69f 62f
6:06 5 6 mph 1016.9mb 70f 62f
6:00 5 6 mph 1016.8mb 70f 62f
5:54 5 7 mph 1016.8mb 70f 63f
5:48 3 6 mph 1016.7mb 70f 63f
5:42 3 6 mph 1016.8mb 70f 63f
5:36 3 5 mph 1016.8mb 70f 63f
5:30 2 6 mph 1016.7mb 70f 63f
5:24 3 6 mph 1016.7mb 70f 63f
5:18 5 6 mph 1016.6mb 70f 63f
5:12 3 5 mph 1016.6mb 70f 63f
5:06 3 5 mph 1016.5mb 70f 63f
5:00 2 3 mph 1016.4mb 70f 63f
4:54 2 5 mph 1016.5mb 70f 63f
4:48 3 7 mph 1016.4mb 70f 63f
4:42 3 6 mph 1016.4mb 70f 63f
4:36 3 6 mph 1016.5mb 70f 63f
4:30 3 6 mph 1016.5mb 70f 63f
4:24 5 6 mph 1016.5mb 70f 63f
4:18 2 5 mph 1016.4mb 70f 63f
4:12 1 5 mph 1016.4mb 70f 63f
4:06 3 5 mph 1016.4mb 70f 63f
4:00 3 7 mph 1016.3mb 70f 63f
3:54 2 6 mph 1016.4mb 70f 63f
3:48 3 5 mph 1016.4mb 70f 63f
3:42 5 6 mph 1016.5mb 70f 63f
3:36 3 6 mph 1016.6mb 70f 63f
3:30 3 6 mph 1016.5mb 70f 63f
3:24 3 6 mph 1016.6mb 70f 63f
3:18 5 6 mph 1016.6mb 70f 63f
3:12 5 6 mph 1016.6mb 71f 63f
3:06 5 6 mph 1016.7mb 71f 63f
3:00 5 6 mph 1016.7mb 71f 63f
2:54 5 6 mph 1016.7mb 71f 63f
2:48 5 6 mph 1016.7mb 71f 63f
2:42 3 6 mph 1016.7mb 71f 63f
2:36 5 6 mph 1016.8mb 71f 63f
2:30 3 6 mph 1016.8mb 71f 63f
2:24 5 6 mph 1016.8mb 71f 63f
2:18 5 6 mph 1016.7mb 71f 63f
2:12 5 6 mph 1016.7mb 71f 63f
2:06 5 6 mph 1016.7mb 71f 63f
2:00 5 6 mph 1016.7mb 71f 63f
1:54 5 6 mph 1016.7mb 71f 64f
1:48 6 7 mph 1016.6mb 71f 64f
1:42 5 6 mph 1016.6mb 71f 64f
1:36 5 6 mph 1016.6mb 71f 64f
1:30 3 5 mph 1016.6mb 71f 64f
1:24 3 6 mph 1016.6mb 71f 64f
1:18 5 6 mph 1016.6mb 71f 64f
1:12 5 6 mph 1016.5mb 71f 64f
1:06 5 7 mph 1016.6mb 71f 64f
1:00 5 6 mph 1016.6mb 71f 64f
12:54 6
mph
1016.5mb 71f 64f
12:48 5 7 mph 1016.3mb 71f 64f
12:42 5 6 mph 1016.5mb 71f 64f
12:36 5 7 mph 1016.4mb 71f 64f
12:30 5 6 mph 1016.4mb 71f 64f
12:24 3 6 mph 1016.5mb 71f 64f
12:18 3 6 mph 1016.5mb 71f 64f
12:12 3 6 mph 1016.4mb 71f 64f
12:06 5 7 mph 1016.5mb 71f 65f
12:00 3 6 mph 1016.4mb 71f 65f
mié 08/20 11:54 5 7 mph 1016.3mb 71f 65f
11:48 5 6 mph 1016.3mb 71f 65f
11:42 5 6 mph 1016.3mb 71f 65f
11:36 2 5 mph 1016.3mb 71f 65f
11:30 3
mph
1016.3mb 71f 66f
11:24 1 2 mph 1016.5mb 71f 66f
11:18 1 2 mph 1016.5mb 71f 66f
11:12 2
mph
1016.4mb 71f 66f
11:06 1 2 mph 1016.4mb 71f 66f
11:00 2
mph
1016.4mb 71f 66f
10:54 1 2 mph 1016.3mb 71f 66f
10:48 1 2 mph 1016.3mb 71f 66f
10:42 1 2 mph 1016.3mb 71f 66f
10:36 2 3 mph 1016.3mb 71f 66f
10:30 2 3 mph 1016.4mb 71f 67f
10:24  -  2 mph 1016.4mb 71f 67f
10:18 2
mph
1016.4mb 71f 67f
10:12 1 2 mph 1016.4mb 70f 67f
10:06 1 2 mph 1016.4mb 70f 67f
10:00 2 3 mph 1016.3mb 70f 67f
9:54 2 3 mph 1016.3mb 70f 67f
9:48 1 2 mph 1016.4mb 70f 67f
9:42 2 3 mph 1016.4mb 70f 68f
9:36 1 2 mph 1016.4mb 71f 68f
9:30 2
mph
1016.3mb 70f 68f
9:24 2
mph
1016.4mb 70f 68f
9:18 2
mph
1016.3mb 70f 68f
9:12 1 2 mph 1016.3mb 70f 68f
9:06 1 2 mph 1016.3mb 70f 68f
9:00 2
mph
1016.2mb 70f 68f
8:54 2 3 mph 1016.2mb 70f 68f
8:48 2
mph
1016.1mb 70f 68f
8:42 2 3 mph 1016.1mb 70f 68f
8:36 2 5 mph 1016.1mb 70f 68f
8:30 3 5 mph 1016.1mb 70f 68f
8:24 5 6 mph 1016.1mb 70f 69f
8:18 3 5 mph 1016mb 70f 69f
8:12 3 6 mph 1016.1mb 70f 69f
8:06 3 6 mph 1016.1mb 70f 69f
8:00 3 5 mph 1016mb 70f 69f
7:54 3 5 mph 1015.9mb 69f 69f
7:48 5 6 mph 1015.9mb 69f 69f
7:42 5 6 mph 1015.9mb 69f 70f
7:36 6
mph
1015.9mb 69f 70f
7:30 5 6 mph 1015.9mb 69f 70f
7:24 5 6 mph 1015.9mb 69f 70f
7:18 6 8 mph 1015.9mb 69f 70f
7:12 5 7 mph 1015.9mb 69f 71f
7:06 6 9 mph 1015.8mb 69f 71f
7:00 6 8 mph 1015.8mb 69f 71f
6:54 7 8 mph 1015.9mb 69f 72f
6:48 6 8 mph 1015.8mb 69f 72f
6:42 7 9 mph 1015.7mb 69f 72f
6:36 6 8 mph 1015.6mb 69f 72f
6:30 7 8 mph 1015.6mb 69f 72f
6:24 6 7 mph 1015.6mb 69f 73f
6:18 6 7 mph 1015.6mb 69f 73f
6:12 6 7 mph 1015.6mb 69f 73f
6:06 6 9 mph 1015.6mb 69f 73f
6:00 7 10 mph 1015.6mb 69f 73f
5:54 8 10 mph 1015.6mb 69f 73f
5:48 8 10 mph 1015.6mb 69f 73f
5:42 9 11 mph 1015.5mb 69f 73f
5:36 9 10 mph 1015.5mb 69f 73f
5:30 7 14 mph 1015.4mb 69f 73f
5:24 7 9 mph 1015.4mb 69f 73f
5:18 8 10 mph 1015.3mb 69f 73f
5:12 8 13 mph 1015.3mb 69f 74f
5:06 9 10 mph 1015.2mb 69f 73f
5:00 7 9 mph 1015.2mb 69f 73f
4:54 6 9 mph 1015.2mb 69f 74f
4:48 7 10 mph 1015.2mb 69f 74f
4:42 7 10 mph 1015.2mb 69f 74f
4:36 8 10 mph 1015.2mb 69f 74f
4:30 7 11 mph 1015mb 69f 74f
4:24 7 10 mph 1015.1mb 70f 74f
4:18 9 10 mph 1015mb 70f 74f
4:12 7 10 mph 1014.9mb 70f 75f
4:06 7 9 mph 1014.7mb 69f 74f
4:00 8 10 mph 1014.7mb 69f 74f
3:54 7 11 mph 1014.7mb 69f 74f
3:48 8 10 mph 1014.6mb 70f 74f
3:42 8 10 mph 1014.7mb 70f 74f
3:36 8 10 mph 1014.7mb 70f 74f
3:30 8 11 mph 1014.8mb 70f 73f
3:24 9 11 mph 1014.8mb 70f 73f
3:18 9 11 mph 1014.8mb 70f 73f
3:12 10 11 mph 1014.9mb 69f 72f
3:06 10 13 mph 1015mb 70f 72f
3:00 10 13 mph 1014.9mb 70f 72f
2:54 10 13 mph 1014.9mb 70f 72f
2:48 10 13 mph 1014.9mb 69f 72f
2:42 10 13 mph 1014.9mb 70f 73f
2:36 10 11 mph 1014.9mb 70f 73f
2:30 10 14 mph 1014.9mb 70f 72f
2:24 13 15 mph 1015.1mb 70f 72f
2:18 14 15 mph 1015.1mb 70f 73f
2:12 14 15 mph 1015mb 70f 73f
2:06 13 14 mph 1015.1mb 70f 73f
2:00 10 13 mph 1015.1mb 69f 73f
1:54 11 13 mph 1015.1mb 70f 72f
1:48 10 14 mph 1015mb 69f 73f
1:42 11 13 mph 1014.9mb 70f 73f
1:36 8 13 mph 1014.9mb 70f 74f
1:30 11 13 mph 1015mb 70f 73f
1:24 10 11 mph 1015.1mb 69f 73f
1:18 9 11 mph 1015.1mb 69f 73f
1:12 7 11 mph 1015.3mb 69f 74f
1:06 7 10 mph 1015.2mb 69f 74f
1:00 7 9 mph 1015.3mb 69f 74f
12:54 8 10 mph 1015.3mb 69f 73f
12:48 7 9 mph 1015.3mb 69f 74f
12:42 7 9 mph 1015.3mb 69f 74f
12:36 6 8 mph 1015.3mb 69f 74f
12:30 6 8 mph 1015.4mb 69f 74f
12:24 7 8 mph 1015.4mb 69f 73f
12:18 7 8 mph 1015.4mb 69f 74f
12:12 7 8 mph 1015.4mb 69f 74f
12:06  -  mph 1015.4mb 69f 75f
12:00  -  3 mph 1015.4mb 69f 75f
11:54 2 5 mph 1015.5mb 69f 76f
11:48 2 5 mph 1015.6mb 69f 76f
11:42 2 3 mph 1015.6mb 69f 75f
11:36 1 3 mph 1015.7mb 69f 76f
11:30 3 5 mph 1015.7mb 69f 76f
11:24 5
mph
1015.7mb 69f 75f
11:18 2 3 mph 1015.7mb 69f 75f
11:12 1 3 mph 1015.6mb 69f 75f
11:06 1 5 mph 1015.6mb 69f 73f
11:00 2 3 mph 1015.6mb 69f 72f
10:54 2 3 mph 1015.6mb 69f 73f
10:48 2 3 mph 1015.7mb 69f 72f
10:42 2 3 mph 1015.6mb 69f 70f
10:36 2 3 mph 1015.7mb 69f 69f
10:30 2 5 mph 1015.7mb 69f 69f
10:24 1 3 mph 1015.7mb 69f 69f
10:18 2 3 mph 1015.7mb 69f 68f
10:12 2 5 mph 1015.7mb 69f 68f
10:06 3 5 mph 1015.6mb 69f 68f
10:00 3 5 mph 1015.6mb 69f 67f
9:54 3 5 mph 1015.6mb 69f 66f
9:48 3 5 mph 1015.6mb 69f 66f
9:42 3 6 mph 1015.6mb 69f 64f
9:36 3 6 mph 1015.5mb 69f 64f
9:30 5 6 mph 1015.4mb 69f 64f
9:24 5 6 mph 1015.4mb 69f 63f
9:18 2 6 mph 1015.3mb 69f 63f
9:12 3 6 mph 1015.3mb 69f 63f
9:06 5 6 mph 1015.3mb 69f 63f
9:00 5 7 mph 1015.3mb 69f 62f
8:54 6 7 mph 1015.3mb 69f 62f
8:48 5 8 mph 1015.2mb 69f 62f
8:42 5 7 mph 1015.2mb 69f 62f
8:36 6 7 mph 1015.1mb 69f 62f
8:30 5 8 mph 1015mb 69f 62f
8:24 6 7 mph 1015mb 69f 62f
8:18 5 6 mph 1015mb 69f 61f
8:12 5 7 mph 1015mb 69f 62f
8:06 5 7 mph 1015mb 69f 62f
8:00 5 7 mph 1014.9mb 69f 61f
7:54 6 7 mph 1014.9mb 69f 61f
7:48 6 8 mph 1014.8mb 69f 61f
7:42 2 6 mph 1014.8mb 69f 62f
7:36 5 7 mph 1014.8mb 69f 61f
7:30 6 7 mph 1014.8mb 69f 61f
7:24 3 6 mph 1014.9mb 69f 61f
7:18 5 6 mph 1014.8mb 69f 61f
7:12 5 7 mph 1014.7mb 69f 61f
7:06 5 7 mph 1014.8mb 69f 61f
7:00 5 8 mph 1014.8mb 69f 61f
6:54 2 5 mph 1014.8mb 69f 61f
6:48 2 5 mph 1014.8mb 69f 61f
6:42 3 6 mph 1014.7mb 69f 61f
6:36 3 5 mph 1014.6mb 69f 61f
6:30 3 6 mph 1014.6mb 69f 61f
6:24 6 7 mph 1014.6mb 69f 61f
6:18 3 6 mph 1014.5mb 69f 62f
6:12 2 7 mph 1014.5mb 69f 62f
6:06 3 8 mph 1014.6mb 69f 62f
6:00 7 8 mph 1014.5mb 69f 61f
5:54 6 8 mph 1014.4mb 69f 62f
5:48 6 7 mph 1014.3mb 69f 62f
5:42 5 6 mph 1014.1mb 69f 62f
5:36 2 6 mph 1014mb 69f 63f
5:30 5 8 mph 1014mb 69f 63f
5:24 6 8 mph 1014mb 69f 63f
5:18 6 8 mph 1014mb 69f 63f
5:12 6 9 mph 1014mb 69f 63f
5:06 6 8 mph 1014mb 70f 63f
5:00 6 8 mph 1014.1mb 70f 63f
4:54 6 8 mph 1014mb 70f 63f
4:48 6 8 mph 1014mb 70f 63f
4:42 6 8 mph 1014mb 70f 62f
4:36 6 8 mph 1013.9mb 70f 63f
4:30 6 7 mph 1013.8mb 70f 63f
4:24 6 7 mph 1013.8mb 70f 63f
4:18 6 7 mph 1013.8mb 70f 63f
4:12 6 7 mph 1013.7mb 70f 63f
4:06 5 7 mph 1013.7mb 70f 63f
4:00 6 8 mph 1013.7mb 70f 63f
3:54 6 7 mph 1013.7mb 70f 63f
3:48 6 7 mph 1013.8mb 70f 63f
3:42 6 8 mph 1013.8mb 70f 63f
3:36 6 8 mph 1013.8mb 70f 63f
3:30 5 8 mph 1013.7mb 70f 63f
3:24 6 7 mph 1013.6mb 70f 63f
3:18 6 7 mph 1013.6mb 70f 63f
3:12 5 6 mph 1013.5mb 70f 63f
3:06 3 5 mph 1013.5mb 70f 63f
3:00 5 6 mph 1013.6mb 70f 63f
2:54 5 6 mph 1013.7mb 70f 63f
2:48 5 6 mph 1013.6mb 70f 63f
2:42 5 7 mph 1013.5mb 70f 63f
2:36 5 6 mph 1013.5mb 70f 63f
2:30 5 6 mph 1013.4mb 70f 63f
2:24 5 7 mph 1013.3mb 70f 63f
2:18 5 6 mph 1013.5mb 70f 63f
2:12 5 7 mph 1013.5mb 70f 63f
2:06 6 7 mph 1013.5mb 70f 63f
2:00 5 7 mph 1013.6mb 70f 63f
1:54 5 6 mph 1013.7mb 70f 63f
1:48 3 6 mph 1013.7mb 70f 63f
1:42 3 5 mph 1013.6mb 70f 64f
1:36 3 5 mph 1013.6mb 70f 64f
1:30 2 3 mph 1013.7mb 70f 64f
1:24 2 3 mph 1013.6mb 70f 64f
1:18 2 3 mph 1013.6mb 70f 64f
1:12 3
mph
1013.6mb 70f 64f
1:06 2 6 mph 1013.6mb 70f 64f
1:00 5 6 mph 1013.7mb 70f 64f
12:54 2 3 mph 1013.6mb 70f 64f
12:48 3 6 mph 1013.6mb 70f 64f
12:42 5 6 mph 1013.5mb 70f 64f
12:36 6
mph
1013.5mb 70f 64f
12:30 3 5 mph 1013.4mb 70f 64f
12:24 3 5 mph 1013.5mb 70f 64f
12:18 5 6 mph 1013.4mb 70f -
12:12 3 5 mph 1013.5mb 70f -
12:06 5 6 mph 1013.4mb 70f -
12:00 3 5 mph 1013.4mb 70f 65f
mar 08/19 11:54 3 5 mph 1013.4mb 70f 65f
11:48 2
mph
1013.4mb 70f 65f
11:42 1 3 mph 1013.4mb 70f 65f
11:36 2 3 mph 1013.4mb 69f 65f
11:30 2 3 mph 1013.4mb 69f 65f
11:24 2
mph
1013.4mb 69f 65f
11:18 1 3 mph 1013.4mb 69f 65f
11:12 2 3 mph 1013.3mb 69f 65f
11:06 3 5 mph 1013.3mb 70f 65f
11:00 3 6 mph 1013.2mb 70f 66f
10:54 5 6 mph 1013.2mb 70f 65f
10:48 3 6 mph 1013.2mb 70f 66f
10:42 3 6 mph 1013.3mb 70f 67f
10:36  -  3 mph 1013.2mb 70f 68f
10:30 2 5 mph 1013.3mb 70f 68f
10:24 3 5 mph 1013.3mb 70f 68f
10:18 2 5 mph 1013.2mb 70f 68f
10:12 3 6 mph 1013.1mb 70f 68f
10:06 3 6 mph 1013.1mb 70f 68f
10:00 3 5 mph 1012.8mb 70f 68f
9:54 2 5 mph 1012.9mb 70f 67f
9:48 3 5 mph 1012.8mb 70f 67f
9:42 3 5 mph 1012.9mb 70f 67f
9:36 2 5 mph 1012.9mb 70f 67f
9:30 3 5 mph 1012.9mb 70f 68f
9:24 3 6 mph 1012.9mb 70f 67f
9:18 3 6 mph 1012.8mb 70f 67f
9:12 3 5 mph 1012.8mb 70f 68f
9:06 3 5 mph 1012.9mb 70f 68f
9:00 3
mph
1012.9mb 70f 68f
8:54 3 6 mph 1012.9mb 70f 68f
8:48 5 7 mph 1012.9mb 70f 69f
8:42 5 6 mph 1012.9mb 70f 69f
8:36 5 6 mph 1012.8mb 70f 69f
8:30 5 6 mph 1012.7mb 70f 69f
8:24 6 7 mph 1012.6mb 70f 69f
8:18 6 7 mph 1012.5mb 70f 69f
8:12 6 7 mph 1012.4mb 70f 69f
8:06 6 7 mph 1012.4mb 69f 69f
8:00 6 7 mph 1012.5mb 69f 69f
7:54 6 7 mph 1012.4mb 69f 69f
7:48 6 8 mph 1012.4mb 69f 69f
7:42 6 8 mph 1012.3mb 69f 69f
7:36 7 9 mph 1012.2mb 69f 70f
7:30 6 8 mph 1012.3mb 69f 70f
7:24 7 9 mph 1012.3mb 69f 69f
7:18 8 9 mph 1012.2mb 69f 69f
7:12 8 9 mph 1012.1mb 69f 69f
7:06 7 8 mph 1012.1mb 69f 70f
7:00 8 9 mph 1012mb 69f 70f
6:54 8 9 mph 1012mb 69f 70f
6:48 8 10 mph 1012.1mb 69f 70f
6:42 9 10 mph 1012.1mb 69f 70f
6:36 9 11 mph 1012.1mb 69f 70f
6:30 9 11 mph 1012mb 69f 70f
6:24 9 10 mph 1011.9mb 69f 70f
6:18 8 11 mph 1012mb 69f 70f
6:12 10 11 mph 1012mb 69f 70f
6:06 10 11 mph 1012mb 69f 70f
6:00 10 13 mph 1012.1mb 69f 70f
5:54 10 13 mph 1012mb 69f 70f
5:48 10 13 mph 1012mb 69f 71f
5:42 10 13 mph 1012mb 69f 71f
5:36 11 13 mph 1012mb 69f 71f
5:30 10 13 mph 1012.1mb 69f 71f
5:24 10 13 mph 1012.1mb 69f 71f
5:18 10 13 mph 1012.2mb 69f 71f
5:12 11 13 mph 1012.3mb 69f 71f
5:06 10 13 mph 1012.3mb 69f 71f
5:00 9 13 mph 1012.3mb 68f 71f
4:54 11 14 mph 1012.2mb 68f 71f
4:48 11 13 mph 1012.2mb 68f 71f
4:42 11 13 mph 1012.2mb 69f 71f
4:36 11 14 mph 1012.3mb 69f 71f
4:30 13 14 mph 1012.3mb 69f 70f
4:24 11 14 mph 1012.2mb 69f 71f
4:18 13 14 mph 1012.2mb 69f 70f
4:12 11 13 mph 1012.2mb 69f 71f
4:06 9 10 mph 1012.1mb 69f 71f
4:00 10 11 mph 1012.1mb 69f 71f
3:54 10 11 mph 1012.1mb 69f 71f
3:48 11 13 mph 1012mb 69f 71f
3:42 11 13 mph 1012.1mb 69f 70f
3:36 10 13 mph 1012.2mb 69f 71f
3:30 11 13 mph 1012.2mb 69f 71f
3:24 11 13 mph 1012.2mb 69f 70f
3:18 11 13 mph 1012.2mb 68f 70f
3:12 11 14 mph 1012.1mb 69f 70f
3:06 13 14 mph 1012.1mb 68f 70f
3:00 11 14 mph 1012.2mb 69f 70f
2:54 11 13 mph 1012.1mb 69f 70f
2:48 13 14 mph 1012.1mb 69f 70f
2:42 11 13 mph 1012.2mb 69f 70f
2:36 11 13 mph 1012.3mb 69f 70f
2:30 10 13 mph 1012.4mb 69f 70f
2:24 11 14 mph 1012.3mb 69f 70f
2:18 13 15 mph 1012.1mb 69f 70f
2:12 11 14 mph 1012.3mb 69f 70f
2:06 13 14 mph 1012.5mb 69f 70f
2:00 11 14 mph 1012.6mb 69f 70f
1:54 13 14 mph 1012.6mb 69f 70f
1:48 11 14 mph 1012.5mb 69f 70f
1:42 13 14 mph 1012.5mb 69f 70f
1:36 11 14 mph 1012.5mb 69f 70f
1:30 13 15 mph 1012.7mb 69f 69f
1:24 14 16 mph 1012.7mb 69f 69f
1:18 14 15 mph 1012.7mb 69f 69f
1:12 14 15 mph 1012.7mb 69f 69f
1:06 13 14 mph 1012.7mb 69f 69f
1:00 13 14 mph 1012.6mb 69f 70f
12:54 13 14 mph 1012.7mb 69f 70f
12:48 11 13 mph 1012.7mb 69f 70f
12:42 13 14 mph 1012.7mb 69f 70f
12:36 13 14 mph 1012.7mb 69f 70f
12:30 10 13 mph 1012.8mb 69f 70f
12:24 10 13 mph 1012.7mb 69f 70f
12:18 9 10 mph 1012.7mb 69f 70f
12:12 8 9 mph 1012.7mb 69f 70f
12:06 8 9 mph 1012.7mb 69f 70f
12:00 8 9 mph 1012.7mb 69f 70f
11:54 8 9 mph 1012.7mb 69f 70f
11:48 7 8 mph 1012.8mb 69f 70f
11:42 7 8 mph 1012.8mb 69f 71f
11:36 5 7 mph 1012.8mb 69f 71f
11:30 5 7 mph 1012.8mb 69f 72f
11:24 2 5 mph 1013mb 69f 72f
11:18 2 5 mph 1013mb 69f 73f
11:12 2 5 mph 1013mb 69f 73f
11:06 3
mph
1013mb 69f 72f
11:00 3 6 mph 1013.1mb 69f 72f
10:54 3 5 mph 1013.1mb 69f 72f
10:48 3 5 mph 1013.1mb 69f 71f
10:42 3 5 mph 1013.1mb 69f 71f
10:36 3 6 mph 1013mb 69f 70f
10:30 3 6 mph 1012.9mb 69f 70f
10:24 1 5 mph 1012.8mb 69f 70f
10:18 3 5 mph 1012.8mb 69f 70f
10:12 2 5 mph 1012.8mb 69f 69f
10:06 2 6 mph 1012.8mb 69f 69f
10:00 3 6 mph 1012.7mb 69f 68f
9:54 3 6 mph 1012.6mb 69f 67f
9:48 2 6 mph 1012.5mb 69f 67f
9:42 2 6 mph 1012.6mb 69f 67f
9:36 3 6 mph 1012.5mb 69f 67f
9:30 2 5 mph 1012.5mb 69f 66f
9:24 3 7 mph 1012.5mb 69f 65f
9:18 5 7 mph 1012.4mb 69f 65f
9:12 5 7 mph 1012.3mb 69f 64f
9:06 5 8 mph 1012.3mb 69f 64f
9:00 5 9 mph 1012.3mb 69f 64f
8:54 6 9 mph 1012.3mb 69f 63f
8:48 6 8 mph 1012.4mb 69f 62f
8:42 6 10 mph 1012.3mb 69f 62f
8:36 7 9 mph 1012.4mb 69f 61f
8:30 6 9 mph 1012.6mb 69f 61f
8:24 6 9 mph 1012.6mb 68f 61f
8:18 7 10 mph 1012.5mb 68f 60f
8:12 7 10 mph 1012.5mb 68f 60f
8:06 9 13 mph 1012.4mb 68f 59f
8:00 8 13 mph 1012.4mb 68f 59f
7:54 9 13 mph 1012.3mb 68f 59f
7:48 7 10 mph 1012.4mb 68f 58f
7:42 8 11 mph 1012.4mb 68f 58f
7:36 7 13 mph 1012.3mb 68f 58f
7:30 9 14 mph 1012.3mb 68f 57f
7:24 9 14 mph 1012.4mb 68f 57f
7:18 8 11 mph 1012.4mb 68f 57f
7:12 8 11 mph 1012.4mb 69f 58f
7:06 9 13 mph 1012.3mb 69f 57f
7:00 9 11 mph 1012.2mb 69f 58f
6:54 9 10 mph 1012.1mb 69f 57f
6:48 7 9 mph 1012.1mb 69f 58f
6:42 7 9 mph 1012mb 69f 57f
6:36 8 10 mph 1012mb 69f 57f
6:30 6 9 mph 1012mb 69f 58f
6:24 7 8 mph 1011.9mb 69f 57f
6:18 7 9 mph 1011.9mb 69f 57f
6:12 6 8 mph 1011.9mb 69f 57f
6:06 6 8 mph 1011.8mb 69f 57f
6:00 6 8 mph 1011.7mb 69f 57f
5:54 6 8 mph 1011.7mb 69f 57f
5:48 6 7 mph 1011.6mb 69f 57f
5:42 5 7 mph 1011.6mb 69f 57f
5:36 5 7 mph 1011.5mb 69f 57f
5:30 6 8 mph 1011.4mb 69f 57f
5:24 7 8 mph 1011.4mb 69f 58f
5:18 7 9 mph 1011.4mb 69f 58f
5:12 6 7 mph 1011.4mb 69f 58f
5:06 6 8 mph 1011.3mb 69f 58f
5:00 6 8 mph 1011.3mb 69f 58f
4:54 5 8 mph 1011.3mb 69f 58f
4:48 6 8 mph 1011.3mb 69f 58f
4:42 6 7 mph 1011.3mb 69f 58f
4:36 6 7 mph 1011.3mb 69f 58f
4:30 5 7 mph 1011.3mb 69f 58f
4:24 6 7 mph 1011.3mb 69f 58f
4:18 3 6 mph 1011.3mb 69f 58f
4:12 5 6 mph 1011.4mb 69f 58f
4:06 3 6 mph 1011.4mb 69f 58f
4:00 3 6 mph 1011.3mb 69f 58f
3:54 5 7 mph 1011.3mb 69f 59f
3:48 5 7 mph 1011.3mb 69f 59f
3:42 6 7 mph 1011.2mb 69f 59f
3:36 5 7 mph 1011.2mb 69f 59f
3:30 5 7 mph 1011.1mb 69f 59f
3:24 6 8 mph 1011mb 69f 59f
3:18 6 8 mph 1011mb 69f 60f
3:12 6 8 mph 1011mb 69f 59f
3:06 5 7 mph 1011mb 69f 60f
3:00 5 7 mph 1010.9mb 69f 60f
2:54 6 8 mph 1010.9mb 69f 60f
2:48 3 6 mph 1011mb 69f 60f
2:42 3 6 mph 1011mb 69f 60f
2:36 5 6 mph 1011mb 69f 60f
2:30 3 5 mph 1011mb 69f 60f
2:24 3 6 mph 1011mb 69f 61f
2:18 3 6 mph 1011mb 69f 61f
2:12 3 6 mph 1011mb 69f 61f
2:06 5 6 mph 1011mb 69f 61f
2:00 3 6 mph 1011mb 69f 61f
1:54 2 5 mph 1011mb 69f 61f
1:48 5 6 mph 1011.1mb 69f 61f
1:42 5 6 mph 1011.1mb 69f 61f
1:36 3 7 mph 1011mb 69f 61f
1:30 6 8 mph 1011mb 69f 62f
1:24 6 8 mph 1010.9mb 69f 62f
1:18 5 7 mph 1010.9mb 69f 62f
1:12 5 7 mph 1010.9mb 69f 62f
1:06 5 6 mph 1010.9mb 69f 62f
1:00 3 5 mph 1010.8mb 69f 62f
12:54 3 5 mph 1011mb 69f 62f
12:48 5 6 mph 1011mb 69f 62f
12:42 5 7 mph 1011.1mb 69f 62f
12:36 5 7 mph 1011.1mb 69f 62f
12:30 3 7 mph 1011.1mb 69f 62f
12:24 6 8 mph 1011.1mb 69f 63f
12:18 5 8 mph 1011.1mb 69f 63f
12:12 3 7 mph 1011mb 69f 63f
12:06 5 7 mph 1011mb 69f 63f
12:00 5 7 mph 1011mb 69f 63f
lun 08/18 11:54 6 8 mph 1011mb 69f 63f
11:48 6 9 mph 1011mb 69f 63f
11:42 6 9 mph 1011mb 69f 64f
11:36 6 8 mph 1011mb 69f 64f
11:30 6 8 mph 1011.1mb 69f 64f
11:24 5 9 mph 1011mb 69f 64f
11:18 6 8 mph 1011mb 69f 64f
11:12 6 7 mph 1011mb 69f 64f
11:06 6 7 mph 1011mb 69f 64f
11:00 5 8 mph 1010.9mb 69f 64f
10:54 5 8 mph 1010.9mb 69f 64f
10:48 6 7 mph 1011mb 69f 64f
10:42 2 6 mph 1011mb 69f 65f
10:36 3 6 mph 1010.9mb 69f 65f
10:30 3 8 mph 1010.9mb 69f 65f
10:24 6 8 mph 1010.8mb 69f 65f
10:18 5 7 mph 1010.7mb 69f 65f
10:12 2 5 mph 1010.7mb 69f 66f
10:06 2 3 mph 1010.7mb 69f 66f
10:00 3 6 mph 1010.7mb 69f 66f
9:54 2 6 mph 1010.8mb 69f 66f
9:48 3 6 mph 1010.7mb 69f 66f
9:42 3 5 mph 1010.6mb 69f 67f
9:36 3 6 mph 1010.5mb 69f 67f
9:30 3 6 mph 1010.4mb 69f 67f
9:24 3 6 mph 1010.4mb 68f 67f
9:18 3 5 mph 1010.4mb 68f 68f
9:12 2 5 mph 1010.4mb 68f 68f
9:06 2 5 mph 1010.3mb 68f 69f
9:00 3 5 mph 1010.3mb 68f 69f
8:54 3
mph
1010.2mb 69f 69f
8:48 1 3 mph 1010.2mb 69f 69f
8:42 1 5 mph 1010mb 69f 70f
8:36 2 5 mph 1010mb 69f 70f
8:30 3 6 mph 1009.9mb 69f 70f
8:24 5 6 mph 1009.8mb 69f 71f
8:18 3 6 mph 1009.7mb 69f 71f
8:12 1 5 mph 1009.6mb 69f 71f
8:06 2 6 mph 1009.4mb 69f 71f
8:00 2 5 mph 1009.4mb 69f 72f
7:54 2 3 mph 1009.4mb 69f 72f
7:48 2 3 mph 1009.4mb 69f 73f
7:42 2 5 mph 1009.4mb 69f 74f
7:36 2 5 mph 1009.3mb 69f 74f
7:30 2 5 mph 1009.2mb 69f 74f
7:24 2 5 mph 1009.2mb 69f 74f
7:18 2 5 mph 1009.2mb 69f 75f
7:12 2 6 mph 1009.1mb 69f 75f
7:06 2 5 mph 1009.1mb 69f 76f
7:00 2 3 mph 1009mb 69f 76f
6:54 3 5 mph 1009mb 69f 76f
6:48 3 6 mph 1009mb 69f 76f
6:42 3 6 mph 1008.9mb 69f 76f
6:36 3 7 mph 1008.9mb 69f 76f
6:30 5 7 mph 1008.9mb 69f 76f
6:24 5 7 mph 1008.9mb 69f 76f
6:18 5 7 mph 1008.9mb 69f 77f
6:12 5 7 mph 1008.8mb 69f 77f
6:06 3 7 mph 1008.8mb 69f 77f
6:00 2 9 mph 1008.8mb 69f 77f
5:54 6 9 mph 1008.8mb 69f 76f
5:48 6 8 mph 1008.7mb 69f 76f
5:42 6 9 mph 1008.6mb 69f 76f
5:36 6 9 mph 1008.5mb 69f 77f
5:30 5 10 mph 1008.5mb 69f 77f
5:24 6 8 mph 1008.5mb 69f 78f
5:18 5 9 mph 1008.6mb 69f 78f
5:12 5 10 mph 1008.6mb 69f 78f
5:06 5 7 mph 1008.6mb 69f 77f
5:00 2 8 mph 1008.6mb 69f 78f
4:54 5 9 mph 1008.6mb 69f 78f
4:48 6 10 mph 1008.6mb 69f 76f
4:42 5 6 mph 1008.5mb 69f 77f
4:36 2 6 mph 1008.4mb 69f 79f
4:30 2 8 mph 1008.4mb 69f 78f
4:24 5 8 mph 1008.4mb 69f 77f
4:18 5 9 mph 1008.4mb 69f 78f
4:12 6 9 mph 1008.4mb 69f 78f
4:06 5 7 mph 1008.4mb 69f 78f
4:00 3 8 mph 1008.4mb 69f 78f
3:54 7 10 mph 1008.4mb 69f 77f
3:48 3 8 mph 1008.4mb 69f 79f
3:42 5 9 mph 1008.4mb 69f 78f
3:36 5 13 mph 1008.5mb 69f 78f
3:30 6 10 mph 1008.4mb 68f 79f
3:24 6 11 mph 1008.3mb 69f 78f
3:18 5 9 mph 1008.4mb 69f 79f
3:12 6 11 mph 1008.4mb 69f 78f
3:06 5 11 mph 1008.4mb 69f 78f
3:00 6 9 mph 1008.4mb 69f 77f
2:54 5 10 mph 1008.3mb 69f 77f
2:48 6 14 mph 1008.4mb 69f 77f
2:42 6 11 mph 1008.4mb 69f 79f
2:36 5 10 mph 1008.4mb 69f 78f
2:30 7 9 mph 1008.5mb 69f 77f
2:24 5 8 mph 1008.4mb 68f 77f
2:18 7 10 mph 1008.6mb 68f 76f
2:12 7 10 mph 1008.6mb 68f 76f
2:06 7 10 mph 1008.6mb 68f 76f
2:00 6 9 mph 1008.6mb 68f 76f
1:54 6 9 mph 1008.5mb 68f 77f
1:48 6 13 mph 1008.6mb 68f 76f
1:42 6 13 mph 1008.7mb 68f 77f
1:36 5 13 mph 1008.8mb 68f 76f
1:30 2 6 mph 1008.8mb 68f 76f
1:24 5 13 mph 1008.8mb 68f 76f
1:18 6 10 mph 1008.9mb 68f 76f
1:12 3 10 mph 1008.9mb 68f 76f
1:06 6 10 mph 1009mb 68f 76f
1:00 6 11 mph 1009mb 68f 76f
12:54 8 10 mph 1009mb 69f 75f
12:48 6 10 mph 1009mb 69f 76f
12:42 6 11 mph 1009.1mb 68f 76f
12:36 5 8 mph 1009.1mb 69f 76f
12:30 6 10 mph 1009.2mb 68f 76f
12:24 6 14 mph 1009.3mb 69f 76f
12:18 5 13 mph 1009.1mb 68f 76f
12:12 9 15 mph 1009.1mb 69f 76f
12:06 6 11 mph 1009.1mb 69f 76f
12:00 5 11 mph 1009.3mb 69f 76f
11:54 6 16 mph 1009.3mb 69f 76f
11:48 6 14 mph 1009.4mb 69f 75f
11:42 9 14 mph 1009.4mb 69f 74f
11:36 6 11 mph 1009.5mb 69f 74f
11:30 2 11 mph 1009.6mb 69f 76f
11:24 10 15 mph 1009.7mb 69f 73f
11:18 6 11 mph 1009.8mb 69f 74f
11:12 6 13 mph 1009.9mb 69f 74f
11:06 5 10 mph 1010mb 69f 74f
11:00 6 14 mph 1010mb 69f 74f
10:54 6 13 mph 1010.1mb 69f 74f
10:48 6 9 mph 1010.1mb 69f 74f
10:42 6 13 mph 1010.1mb 69f 73f
10:36 5 8 mph 1010.1mb 69f 73f
10:30 2 6 mph 1010.1mb 69f 73f
10:24 3 8 mph 1010.3mb 69f 73f
10:18 8 13 mph 1010.3mb 69f 71f
10:12 6 9 mph 1010.4mb 69f 72f
10:06 3 8 mph 1010.5mb 69f 72f
10:00 3 10 mph 1010.6mb 69f 72f
9:54 3 8 mph 1010.5mb 69f 71f
9:48 6 9 mph 1010.6mb 69f 70f
9:42 6 9 mph 1010.7mb 69f 70f
9:36 2 7 mph 1010.6mb 69f 70f
9:30 5 8 mph 1010.6mb 69f 70f
9:24 5 8 mph 1010.6mb 69f 69f
9:18 3 7 mph 1010.6mb 69f 69f
9:12 5 7 mph 1010.6mb 69f 69f
9:06 3 7 mph 1010.6mb 68f 69f
9:00 5 7 mph 1010.5mb 68f 69f
8:54 1 6 mph 1010.5mb 68f 68f
8:48 6 8 mph 1010.4mb 69f 67f
8:42 6 8 mph 1010.4mb 68f 67f